createdAt,value
2022-08-11T00:02:02.415Z,19.35
2022-08-11T00:04:37.343Z,19.30
2022-08-11T00:07:07.042Z,19.31
2022-08-11T00:09:41.983Z,19.26
2022-08-11T00:12:18.764Z,19.16
2022-08-11T00:14:55.725Z,19.11
2022-08-11T00:17:28.912Z,19.08
2022-08-11T00:20:18.768Z,18.99
2022-08-11T00:22:48.236Z,18.97
2022-08-11T00:25:19.530Z,18.93
2022-08-11T00:27:49.149Z,18.89
2022-08-11T00:30:18.290Z,18.87
2022-08-11T00:32:55.320Z,18.84
2022-08-11T00:35:52.570Z,18.78
2022-08-11T00:38:16.121Z,18.76
2022-08-11T00:41:33.641Z,18.66
2022-08-11T00:44:40.350Z,18.60
2022-08-11T00:47:36.543Z,18.54
2022-08-11T00:50:41.081Z,18.51
2022-08-11T00:53:36.039Z,18.43
2022-08-11T00:56:40.905Z,18.27
2022-08-11T00:59:34.836Z,18.11
2022-08-11T01:02:08.981Z,18.18
2022-08-11T01:04:50.221Z,18.22
2022-08-11T01:08:16.909Z,18.22
2022-08-11T01:11:15.885Z,18.20
2022-08-11T01:14:02.180Z,18.23
2022-08-11T01:16:52.384Z,18.16
2022-08-11T01:20:44.970Z,18.18
2022-08-11T01:23:27.104Z,18.14
2022-08-11T01:26:31.811Z,18.12
2022-08-11T01:29:49.376Z,18.04
2022-08-11T01:32:55.648Z,18.05
2022-08-11T01:36:04.682Z,17.93
2022-08-11T01:38:55.771Z,17.95
2022-08-11T01:41:47.131Z,17.92
2022-08-11T01:45:15.682Z,17.89
2022-08-11T01:48:01.216Z,17.84
2022-08-11T01:51:16.964Z,17.80
2022-08-11T01:54:18.021Z,17.67
2022-08-11T01:56:52.600Z,17.56
2022-08-11T01:59:51.059Z,17.61
2022-08-11T02:02:54.977Z,17.62
2022-08-11T02:05:47.794Z,17.62
2022-08-11T02:09:04.182Z,17.59
2022-08-11T02:11:38.262Z,17.55
2022-08-11T02:14:24.251Z,17.50
2022-08-11T02:16:59.698Z,17.43
2022-08-11T02:20:21.692Z,17.42
2022-08-11T02:24:04.350Z,17.39
2022-08-11T02:26:11.157Z,17.36
2022-08-11T02:29:00.553Z,17.28
2022-08-11T02:32:23.792Z,17.28
2022-08-11T02:35:19.482Z,17.26
2022-08-11T02:38:15.691Z,17.23
2022-08-11T02:40:53.135Z,17.20
2022-08-11T02:44:00.539Z,17.19
2022-08-11T02:46:38.015Z,17.12
2022-08-11T02:49:46.222Z,17.06
2022-08-11T02:53:01.069Z,17.06
2022-08-11T02:55:56.065Z,16.97
2022-08-11T02:59:11.986Z,16.81
2022-08-11T03:02:04.999Z,16.58
2022-08-11T03:05:04.797Z,16.61
2022-08-11T03:08:18.878Z,16.72
2022-08-11T03:11:28.251Z,16.73
2022-08-11T03:15:00.934Z,16.73
2022-08-11T03:17:52.100Z,16.74
2022-08-11T03:20:39.549Z,16.78
2022-08-11T03:23:36.892Z,16.74
2022-08-11T03:26:30.392Z,16.39
2022-08-11T03:29:18.217Z,16.39
2022-08-11T03:32:05.103Z,16.47
2022-08-11T03:34:38.250Z,16.52
2022-08-11T03:37:51.368Z,16.56
2022-08-11T03:40:58.892Z,16.55
2022-08-11T03:43:58.454Z,16.57
2022-08-11T03:46:48.871Z,16.60
2022-08-11T03:49:56.099Z,16.55
2022-08-11T03:52:51.210Z,16.50
2022-08-11T03:55:56.018Z,16.50
2022-08-11T03:58:50.971Z,16.55
2022-08-11T04:01:38.290Z,16.55
2022-08-11T04:04:51.222Z,16.54
2022-08-11T04:07:56.883Z,16.49
2022-08-11T04:10:33.412Z,16.51
2022-08-11T04:13:29.459Z,16.55
2022-08-11T04:16:31.040Z,16.51
2022-08-11T04:19:16.349Z,16.40
2022-08-11T04:22:20.830Z,16.43
2022-08-11T04:25:09.238Z,16.45
2022-08-11T04:28:29.165Z,16.47
2022-08-11T04:31:44.089Z,16.45
2022-08-11T04:34:57.302Z,16.36
2022-08-11T04:38:05.421Z,16.14
2022-08-11T04:40:55.265Z,16.14
2022-08-11T04:44:02.467Z,16.30
2022-08-11T04:47:11.074Z,16.35
2022-08-11T04:50:11.203Z,16.23
2022-08-11T04:53:20.987Z,16.39
2022-08-11T04:56:31.767Z,16.43
2022-08-11T04:59:51.997Z,16.47
2022-08-11T05:03:04.651Z,16.48
2022-08-11T05:06:01.905Z,16.61
2022-08-11T05:08:47.617Z,16.60
2022-08-11T05:12:01.699Z,16.52
2022-08-11T05:15:07.950Z,16.37
2022-08-11T05:18:04.182Z,16.57
2022-08-11T05:21:05.470Z,16.74
2022-08-11T05:23:55.007Z,16.86
2022-08-11T05:26:49.618Z,16.96
2022-08-11T05:30:00.022Z,16.94
2022-08-11T05:33:02.293Z,16.78
2022-08-11T05:36:01.335Z,16.47
2022-08-11T05:38:53.397Z,16.56
2022-08-11T05:41:46.219Z,16.76
2022-08-11T05:44:39.293Z,16.55
2022-08-11T05:47:30.414Z,16.76
2022-08-11T05:50:17.133Z,16.95
2022-08-11T05:53:21.134Z,17.12
2022-08-11T05:56:14.018Z,17.45
2022-08-11T05:58:44.752Z,17.76
2022-08-11T06:01:27.057Z,18.03
2022-08-11T06:04:17.042Z,18.21
2022-08-11T06:07:03.376Z,18.42
2022-08-11T06:09:35.773Z,18.71
2022-08-11T06:12:09.129Z,19.00
2022-08-11T06:14:43.382Z,19.17
2022-08-11T06:17:11.166Z,19.37
2022-08-11T06:19:47.442Z,19.71
2022-08-11T06:22:21.932Z,20.00
2022-08-11T06:24:57.249Z,20.15
2022-08-11T06:27:26.812Z,20.32
2022-08-11T06:29:55.827Z,20.58
2022-08-11T06:32:36.338Z,20.72
2022-08-11T06:35:48.601Z,20.82
2022-08-11T06:38:37.322Z,21.05
2022-08-11T06:41:33.474Z,21.21
2022-08-11T06:44:28.271Z,21.24
2022-08-11T06:47:01.258Z,21.57
2022-08-11T06:50:08.024Z,21.73
2022-08-11T06:52:37.899Z,21.83
2022-08-11T06:55:57.068Z,22.01
2022-08-11T06:58:24.264Z,22.25
2022-08-11T07:00:59.860Z,22.28
2022-08-11T07:03:34.211Z,22.45
2022-08-11T07:06:50.987Z,22.45
2022-08-11T07:10:01.249Z,22.61
2022-08-11T07:13:04.643Z,22.90
2022-08-11T07:16:11.643Z,23.10
2022-08-11T07:18:55.009Z,23.62
2022-08-11T07:22:00.955Z,23.70
2022-08-11T07:25:37.280Z,23.75
2022-08-11T07:28:45.062Z,24.06
2022-08-11T07:32:04.249Z,24.15
2022-08-11T07:34:41.681Z,24.60
2022-08-11T07:37:24.897Z,24.91
2022-08-11T07:39:55.274Z,25.16
2022-08-11T07:42:29.549Z,25.33
2022-08-11T07:45:16.825Z,25.45
2022-08-11T07:48:05.101Z,25.35
2022-08-11T07:50:55.883Z,25.52
2022-08-11T07:53:23.799Z,25.71
2022-08-11T07:55:54.814Z,25.87
2022-08-11T07:58:44.933Z,26.13
2022-08-11T08:01:40.963Z,26.32
2022-08-11T08:04:29.711Z,26.04
2022-08-11T08:07:16.651Z,26.41
2022-08-11T08:10:04.310Z,26.67
2022-08-11T08:12:51.081Z,27.21
2022-08-11T08:15:40.149Z,27.34
2022-08-11T08:18:26.642Z,27.36
2022-08-11T08:20:59.839Z,27.46
2022-08-11T08:23:34.282Z,27.14
2022-08-11T08:26:04.849Z,26.90
2022-08-11T08:28:34.438Z,27.13
2022-08-11T08:31:01.798Z,27.16
2022-08-11T08:33:31.611Z,27.50
2022-08-11T08:36:14.182Z,27.82
2022-08-11T08:38:48.963Z,28.23
2022-08-11T08:41:25.718Z,28.48
2022-08-11T08:44:05.869Z,28.25
2022-08-11T08:46:48.714Z,28.32
2022-08-11T08:49:20.736Z,28.71
2022-08-11T08:52:01.900Z,28.69
2022-08-11T08:54:43.709Z,28.59
2022-08-11T08:57:12.338Z,28.50
2022-08-11T08:59:48.670Z,28.57
2022-08-11T09:02:33.466Z,29.06
2022-08-11T09:05:04.566Z,29.33
2022-08-11T09:07:38.530Z,29.40
2022-08-11T09:10:08.494Z,29.72
2022-08-11T09:12:41.635Z,29.92
2022-08-11T09:15:12.405Z,29.67
2022-08-11T09:17:43.805Z,29.49
2022-08-11T09:20:17.685Z,29.71
2022-08-11T09:26:15.796Z,29.75
2022-08-11T09:28:44.619Z,30.34
2022-08-11T09:31:13.616Z,30.47
2022-08-11T09:33:43.026Z,30.71
2022-08-11T09:36:31.001Z,30.92
2022-08-11T09:39:35.549Z,31.43
2022-08-11T09:42:04.700Z,31.91
2022-08-11T09:44:49.697Z,32.12
2022-08-11T09:47:29.872Z,31.83
2022-08-11T09:50:02.610Z,32.14
2022-08-11T09:52:36.412Z,32.41
2022-08-11T09:55:11.409Z,31.79
2022-08-11T09:58:06.707Z,31.87
2022-08-11T10:00:40.514Z,31.06
2022-08-11T10:03:15.622Z,30.53
2022-08-11T10:06:08.220Z,30.22
2022-08-11T10:08:39.488Z,29.99
2022-08-11T10:11:10.526Z,29.37
2022-08-11T10:14:31.011Z,28.80
2022-08-11T10:16:50.604Z,28.92
2022-08-11T10:19:20.089Z,29.35
2022-08-11T10:22:14.272Z,29.62
2022-08-11T10:25:03.263Z,29.36
2022-08-11T10:28:16.644Z,28.99
2022-08-11T10:30:36.863Z,28.92
2022-08-11T10:33:36.808Z,28.80
2022-08-11T10:36:16.047Z,28.63
2022-08-11T10:38:47.153Z,28.86
2022-08-11T10:41:33.922Z,28.95
2022-08-11T10:44:04.002Z,29.25
2022-08-11T10:46:50.834Z,29.41
2022-08-11T10:49:20.425Z,29.17
2022-08-11T10:52:06.905Z,29.10
2022-08-11T10:54:53.548Z,28.87
2022-08-11T10:57:41.838Z,28.86
2022-08-11T11:00:15.368Z,28.95
2022-08-11T11:03:23.361Z,29.56
2022-08-11T11:05:34.268Z,30.22
2022-08-11T11:08:33.603Z,30.07
2022-08-11T11:11:02.884Z,29.50
2022-08-11T11:13:53.235Z,29.54
2022-08-11T11:16:44.498Z,29.60
2022-08-11T11:19:13.772Z,29.46
2022-08-11T11:21:42.376Z,29.41
2022-08-11T11:24:34.241Z,29.66
2022-08-11T11:27:14.810Z,29.61
2022-08-11T11:29:59.730Z,30.02
2022-08-11T11:32:35.793Z,30.37
2022-08-11T11:35:26.831Z,30.50
2022-08-11T11:38:04.164Z,30.70
2022-08-11T11:40:32.945Z,31.23
2022-08-11T11:43:01.275Z,31.16
2022-08-11T11:45:28.631Z,30.88
2022-08-11T11:47:58.510Z,30.93
2022-08-11T11:50:36.890Z,31.20
2022-08-11T11:53:08.338Z,31.37
2022-08-11T11:55:36.633Z,30.94
2022-08-11T11:58:23.711Z,30.94
2022-08-11T12:01:12.199Z,31.19
2022-08-11T12:03:40.577Z,31.23
2022-08-11T12:06:09.729Z,31.52
2022-08-11T12:08:38.171Z,31.91
2022-08-11T12:11:28.077Z,31.43
2022-08-11T12:13:58.912Z,31.82
2022-08-11T12:16:34.338Z,32.28
2022-08-11T12:19:25.250Z,31.80
2022-08-11T12:22:13.616Z,31.69
2022-08-11T12:25:00.103Z,31.52
2022-08-11T12:27:30.267Z,31.55
2022-08-11T12:30:09.568Z,31.88
2022-08-11T12:32:40.458Z,31.73
2022-08-11T12:35:09.489Z,31.90
2022-08-11T12:37:44.907Z,32.33
2022-08-11T12:40:43.660Z,32.26
2022-08-11T12:43:41.175Z,32.46
2022-08-11T12:46:14.492Z,32.97
2022-08-11T12:49:06.174Z,33.34
2022-08-11T12:52:00.969Z,33.11
2022-08-11T12:55:01.941Z,32.59
2022-08-11T12:57:58.508Z,31.68
2022-08-11T13:00:46.988Z,31.94
2022-08-11T13:03:33.470Z,31.80
2022-08-11T13:06:02.949Z,32.24
2022-08-11T13:08:33.362Z,32.24
2022-08-11T13:11:19.863Z,31.98
2022-08-11T13:13:54.739Z,32.30
2022-08-11T13:16:28.122Z,32.28
2022-08-11T13:18:57.865Z,31.84
2022-08-11T13:21:26.694Z,31.91
2022-08-11T13:24:01.086Z,32.10
2022-08-11T13:26:47.487Z,32.19
2022-08-11T13:29:29.104Z,32.14
2022-08-11T13:32:00.967Z,32.03
2022-08-11T13:34:34.546Z,32.36
2022-08-11T13:37:05.368Z,31.95
2022-08-11T13:39:34.637Z,31.61
2022-08-11T13:42:04.948Z,31.34
2022-08-11T13:44:36.604Z,31.19
2022-08-11T13:47:08.056Z,31.23
2022-08-11T13:49:41.344Z,31.37
2022-08-11T13:52:17.111Z,31.68
2022-08-11T13:54:48.369Z,31.95
2022-08-11T13:58:06.721Z,32.04
2022-08-11T14:00:15.844Z,31.54
2022-08-11T14:02:55.653Z,31.63
2022-08-11T14:05:28.247Z,31.72
2022-08-11T14:08:37.272Z,31.84
2022-08-11T14:12:22.665Z,31.75
2022-08-11T14:14:13.860Z,31.72
2022-08-11T14:16:45.423Z,31.83
2022-08-11T14:19:15.374Z,31.93
2022-08-11T14:22:07.300Z,31.76
2022-08-11T14:24:41.514Z,31.38
2022-08-11T14:28:32.557Z,30.75
2022-08-11T14:29:59.346Z,30.86
2022-08-11T14:32:27.767Z,30.85
2022-08-11T14:34:56.147Z,30.99
2022-08-11T14:37:25.919Z,31.08
2022-08-11T14:40:02.242Z,30.86
2022-08-11T14:42:49.106Z,30.65
2022-08-11T14:45:58.409Z,30.84
2022-08-11T14:48:24.061Z,31.21
2022-08-11T14:50:51.884Z,31.20
2022-08-11T14:53:23.126Z,31.29
2022-08-11T14:56:09.847Z,31.27
2022-08-11T14:58:37.431Z,31.59
2022-08-11T15:01:24.899Z,31.49
2022-08-11T15:04:29.728Z,31.53
2022-08-11T15:06:40.223Z,31.39
2022-08-11T15:09:09.272Z,31.34
2022-08-11T15:11:55.707Z,31.34
2022-08-11T15:14:42.387Z,31.46
2022-08-11T15:17:13.306Z,31.07
2022-08-11T15:20:09.746Z,30.72
2022-08-11T15:22:55.505Z,30.45
2022-08-11T15:25:23.092Z,30.35
2022-08-11T15:28:13.111Z,30.14
2022-08-11T15:31:01.071Z,30.08
2022-08-11T15:33:48.711Z,30.18
2022-08-11T15:36:34.865Z,30.04
2022-08-11T15:39:08.766Z,30.08
2022-08-11T15:42:12.469Z,30.23
2022-08-11T15:45:03.673Z,30.27
2022-08-11T15:47:42.030Z,30.40
2022-08-11T15:50:15.427Z,30.30
2022-08-11T15:52:51.123Z,30.32
2022-08-11T15:55:20.001Z,30.32
2022-08-11T15:58:09.590Z,30.29
2022-08-11T16:01:03.886Z,30.38
2022-08-11T16:04:07.602Z,30.26
2022-08-11T16:06:47.498Z,30.43
2022-08-11T16:09:21.331Z,30.19
2022-08-11T16:11:50.873Z,30.04
2022-08-11T16:14:38.509Z,30.00
2022-08-11T16:17:10.142Z,29.93
2022-08-11T16:19:40.347Z,29.79
2022-08-11T16:22:12.310Z,29.81
2022-08-11T16:27:02.079Z,29.72
2022-08-11T16:27:35.924Z,29.66
2022-08-11T16:30:07.111Z,29.71
2022-08-11T16:32:37.945Z,29.76
2022-08-11T16:35:28.793Z,29.73
2022-08-11T16:38:16.849Z,29.76
2022-08-11T16:40:45.313Z,29.57
2022-08-11T16:43:36.169Z,29.56
2022-08-11T16:46:24.791Z,29.56
2022-08-11T16:48:55.728Z,29.45
2022-08-11T16:51:23.628Z,29.38
2022-08-11T16:54:04.466Z,29.27
2022-08-11T16:56:44.235Z,29.29
2022-08-11T16:59:20.809Z,29.30
2022-08-11T17:01:53.527Z,29.16
2022-08-11T17:05:11.016Z,29.18
2022-08-11T17:08:01.321Z,29.19
2022-08-11T17:10:56.656Z,29.37
2022-08-11T17:13:36.072Z,29.27
2022-08-11T17:16:12.601Z,29.30
2022-08-11T17:19:00.074Z,29.29
2022-08-11T17:21:30.662Z,29.10
2022-08-11T17:24:07.930Z,29.04
2022-08-11T17:26:57.928Z,28.89
2022-08-11T17:29:29.921Z,28.88
2022-08-11T17:32:15.958Z,28.79
2022-08-11T17:35:04.584Z,28.77
2022-08-11T17:37:34.683Z,28.74
2022-08-11T17:40:05.979Z,28.38
2022-08-11T17:42:54.151Z,28.26
2022-08-11T17:45:41.755Z,28.23
2022-08-11T17:48:26.478Z,28.35
2022-08-11T17:50:56.445Z,28.27
2022-08-11T17:54:02.100Z,28.24
2022-08-11T17:56:50.883Z,28.01
2022-08-11T17:59:37.480Z,27.99
2022-08-11T18:02:34.669Z,28.07
2022-08-11T18:05:12.223Z,28.06
2022-08-11T18:08:04.127Z,27.89
2022-08-11T18:10:52.033Z,27.81
2022-08-11T18:13:41.518Z,27.75
2022-08-11T18:16:28.326Z,27.69
2022-08-11T18:19:14.382Z,27.57
2022-08-11T18:22:14.278Z,27.57
2022-08-11T18:25:07.326Z,27.51
2022-08-11T18:27:54.943Z,27.51
2022-08-11T18:30:41.580Z,27.33
2022-08-11T18:33:56.806Z,27.26
2022-08-11T18:36:40.618Z,27.21
2022-08-11T18:39:31.363Z,27.16
2022-08-11T18:42:29.703Z,27.05
2022-08-11T18:45:19.967Z,26.99
2022-08-11T18:48:11.578Z,26.81
2022-08-11T18:51:31.383Z,26.83
2022-08-11T18:54:15.268Z,26.82
2022-08-11T18:57:04.754Z,26.73
2022-08-11T18:59:55.032Z,26.65
2022-08-11T19:02:49.427Z,26.66
2022-08-11T19:06:05.897Z,26.64
2022-08-11T19:08:49.422Z,26.56
2022-08-11T19:11:42.808Z,26.59
2022-08-11T19:14:31.543Z,26.53
2022-08-11T19:17:44.491Z,26.45
2022-08-11T19:20:33.600Z,26.35
2022-08-11T19:23:21.748Z,26.39
2022-08-11T19:26:08.521Z,26.36
2022-08-11T19:28:57.686Z,26.25
2022-08-11T19:31:45.269Z,26.22
2022-08-11T19:34:41.183Z,26.22
2022-08-11T19:37:28.746Z,26.14
2022-08-11T19:40:25.837Z,26.04
2022-08-11T19:43:23.347Z,26.03
2022-08-11T19:46:17.207Z,26.01
2022-08-11T19:49:05.184Z,25.96
2022-08-11T19:51:55.915Z,25.90
2022-08-11T19:54:51.506Z,25.85
2022-08-11T19:57:40.322Z,25.81
2022-08-11T20:00:38.393Z,25.86
2022-08-11T20:03:27.884Z,25.92
2022-08-11T20:06:18.224Z,25.89
2022-08-11T20:09:06.294Z,25.82
2022-08-11T20:11:58.773Z,25.91
2022-08-11T20:14:49.280Z,25.95
2022-08-11T20:17:36.626Z,25.87
2022-08-11T20:20:25.095Z,25.80
2022-08-11T20:23:13.895Z,25.77
2022-08-11T20:26:14.225Z,25.72
2022-08-11T20:29:06.312Z,25.59
2022-08-11T20:31:52.502Z,25.66
2022-08-11T20:34:38.593Z,25.63
2022-08-11T20:37:25.483Z,25.49
2022-08-11T20:40:13.781Z,25.47
2022-08-11T20:43:01.967Z,25.58
2022-08-11T20:45:55.284Z,25.62
2022-08-11T20:48:44.160Z,25.68
2022-08-11T20:51:33.788Z,25.68
2022-08-11T20:54:38.258Z,25.51
2022-08-11T20:57:35.657Z,25.31
2022-08-11T21:00:39.339Z,25.32
2022-08-11T21:03:35.622Z,25.31
2022-08-11T21:06:31.309Z,25.27
2022-08-11T21:09:20.863Z,25.01
2022-08-11T21:12:14.383Z,25.01
2022-08-11T21:15:04.944Z,25.00
2022-08-11T21:18:00.309Z,24.98
2022-08-11T21:20:48.157Z,24.95
2022-08-11T21:23:37.051Z,24.92
2022-08-11T21:26:26.924Z,24.87
2022-08-11T21:29:14.464Z,24.82
2022-08-11T21:32:01.115Z,24.77
2022-08-11T21:34:47.507Z,24.73
2022-08-11T21:37:35.025Z,24.65
2022-08-11T21:40:24.211Z,24.63
2022-08-11T21:43:12.518Z,24.58
2022-08-11T21:45:59.579Z,24.39
2022-08-11T21:48:46.557Z,24.41
2022-08-11T21:51:32.093Z,24.47
2022-08-11T21:54:19.156Z,24.39
2022-08-11T21:57:06.135Z,24.31
2022-08-11T22:00:03.403Z,24.15
2022-08-11T22:02:57.725Z,24.16
2022-08-11T22:05:45.751Z,24.03
2022-08-11T22:08:31.765Z,23.81
2022-08-11T22:11:32.048Z,23.81
2022-08-11T22:14:22.269Z,23.91
2022-08-11T22:17:09.742Z,24.06
2022-08-11T22:19:57.999Z,24.05
2022-08-11T22:22:52.353Z,24.07
2022-08-11T22:25:53.638Z,24.08
2022-08-11T22:28:40.804Z,23.99
2022-08-11T22:31:27.358Z,24.04
2022-08-11T22:34:13.435Z,23.98
2022-08-11T22:37:01.675Z,23.98
2022-08-11T22:40:00.013Z,23.91
2022-08-11T22:42:50.496Z,23.96
2022-08-11T22:45:36.466Z,23.87
2022-08-11T22:48:24.807Z,23.74
2022-08-11T22:51:12.363Z,23.73
2022-08-11T22:53:59.372Z,23.78
2022-08-11T22:56:50.880Z,23.79
2022-08-11T22:59:38.464Z,23.69
2022-08-11T23:02:25.979Z,23.66
2022-08-11T23:05:11.640Z,23.65
2022-08-11T23:07:58.218Z,23.67
2022-08-11T23:10:45.352Z,23.60
2022-08-11T23:13:31.906Z,23.58
2022-08-11T23:16:18.161Z,23.53
2022-08-11T23:19:04.633Z,23.50
2022-08-11T23:21:52.539Z,23.40
2022-08-11T23:24:40.224Z,23.36
2022-08-11T23:27:28.234Z,23.30
2022-08-11T23:30:19.336Z,23.20
2022-08-11T23:33:10.130Z,23.17
2022-08-11T23:36:03.356Z,23.16
2022-08-11T23:38:51.374Z,23.13
2022-08-11T23:41:37.419Z,23.12
2022-08-11T23:44:24.396Z,23.03
2022-08-11T23:47:14.704Z,23.00
2022-08-11T23:50:01.225Z,23.11
2022-08-11T23:52:48.275Z,23.09
2022-08-11T23:55:39.192Z,23.13
2022-08-11T23:58:26.235Z,23.03
